Omerville, Canada
Current Conditions -  °F | °C
As of 3:00 AM on Thursday 23 Oct 2014 (Local Time) from CYSC Reporting Station
NA  
Wind Chill: 38°   Ceiling: NA
Heat Index: 45°   Visibility: NA
Dew Point: 37°   Wind: 13mph
Humidity: 76%   Direction: 50°NE
Pressure: 30.09"   Gusts: NA
Location:  45.28°N, 72.12°W
Report Text: CYSC 230700Z AUTO 05011KT 360V060 07/03 A3009 RMK CLD MISG WX MISG VIS MISG PCPN MISG SLP195
Loading
Personal Weather Stations






























Interactive Weather Map
Tropical Storm Tracking
New forecast layout! Learn more

10-Day Weather Forecast

Advertisements
Track Severe Weather on mobile